createdAt,value
2018-06-10T00:00:35.806Z,1.60
2018-06-10T00:03:05.157Z,1.80
2018-06-10T00:05:34.448Z,1.60
2018-06-10T00:08:03.412Z,1.67
2018-06-10T00:10:32.211Z,1.43
2018-06-10T00:13:02.796Z,1.57
2018-06-10T00:15:32.791Z,1.60
2018-06-10T00:18:02.188Z,1.57
2018-06-10T00:20:31.524Z,1.43
2018-06-10T00:23:01.232Z,1.43
2018-06-10T00:25:30.336Z,1.53
2018-06-10T00:27:59.579Z,1.90
2018-06-10T00:30:28.321Z,1.93
2018-06-10T00:32:57.617Z,1.33
2018-06-10T00:35:27.073Z,1.57
2018-06-10T00:37:55.702Z,1.50
2018-06-10T00:40:24.863Z,1.50
2018-06-10T00:42:54.298Z,1.30
2018-06-10T00:45:23.570Z,1.67
2018-06-10T00:47:53.355Z,1.93
2018-06-10T00:50:22.384Z,1.40
2018-06-10T00:52:51.846Z,1.30
2018-06-10T00:55:21.176Z,1.40
2018-06-10T00:57:50.681Z,1.53
2018-06-10T01:00:20.346Z,1.43
2018-06-10T01:02:49.425Z,1.40
2018-06-10T01:05:18.879Z,1.73
2018-06-10T01:07:47.637Z,1.70
2018-06-10T01:10:16.903Z,1.50
2018-06-10T01:12:46.379Z,1.67
2018-06-10T01:15:15.588Z,2.07
2018-06-10T01:17:44.784Z,1.40
2018-06-10T01:20:13.813Z,1.80
2018-06-10T01:22:42.731Z,1.70
2018-06-10T01:25:11.960Z,1.50
2018-06-10T01:27:41.753Z,1.60
2018-06-10T01:30:11.557Z,1.70
2018-06-10T01:32:40.556Z,2.07
2018-06-10T01:35:09.790Z,1.90
2018-06-10T01:37:38.735Z,1.33
2018-06-10T01:40:07.679Z,1.70
2018-06-10T01:42:37.004Z,1.57
2018-06-10T01:45:06.273Z,1.70
2018-06-10T01:47:35.264Z,2.13
2018-06-10T01:50:04.371Z,1.40
2018-06-10T01:52:33.371Z,1.80
2018-06-10T01:55:02.736Z,1.47
2018-06-10T01:57:32.576Z,1.60
2018-06-10T02:00:02.087Z,1.80
2018-06-10T02:02:31.456Z,1.90
2018-06-10T02:05:00.110Z,1.70
2018-06-10T02:07:29.975Z,1.80
2018-06-10T02:09:58.719Z,1.60
2018-06-10T02:12:29.764Z,1.77
2018-06-10T02:14:59.013Z,1.50
2018-06-10T02:17:28.453Z,1.40
2018-06-10T02:19:57.887Z,1.90
2018-06-10T02:22:26.933Z,2.00
2018-06-10T02:24:56.892Z,1.60
2018-06-10T02:27:26.081Z,1.70
2018-06-10T02:29:55.247Z,1.70
2018-06-10T02:32:24.656Z,1.80
2018-06-10T02:34:54.010Z,1.83
2018-06-10T02:37:23.263Z,1.77
2018-06-10T02:39:52.395Z,1.77
2018-06-10T02:42:21.780Z,1.90
2018-06-10T02:44:51.044Z,1.67
2018-06-10T02:47:19.916Z,1.63
2018-06-10T02:49:49.894Z,1.80
2018-06-10T02:52:22.994Z,1.60
2018-06-10T02:54:52.172Z,1.83
2018-06-10T02:57:21.201Z,1.67
2018-06-10T02:59:50.150Z,1.80
2018-06-10T03:02:18.936Z,1.60
2018-06-10T03:04:48.027Z,1.57
2018-06-10T03:07:18.761Z,1.83
2018-06-10T03:09:48.216Z,1.80
2018-06-10T03:12:17.530Z,1.97
2018-06-10T03:14:47.460Z,1.80
2018-06-10T03:17:16.489Z,1.60
2018-06-10T03:19:46.310Z,2.07
2018-06-10T03:22:16.193Z,1.83
2018-06-10T03:24:45.951Z,1.83
2018-06-10T03:27:15.256Z,1.63
2018-06-10T03:29:44.396Z,1.80
2018-06-10T03:32:14.311Z,2.00
2018-06-10T03:34:43.611Z,2.00
2018-06-10T03:37:12.819Z,1.70
2018-06-10T03:39:42.052Z,2.00
2018-06-10T03:42:11.804Z,1.80
2018-06-10T03:44:41.367Z,1.77
2018-06-10T03:47:10.427Z,2.00
2018-06-10T03:49:39.406Z,2.40
2018-06-10T03:52:09.052Z,1.93
2018-06-10T03:54:38.414Z,1.90
2018-06-10T03:57:07.628Z,1.87
2018-06-10T03:59:37.017Z,2.10
2018-06-10T04:02:07.030Z,2.00
2018-06-10T04:04:36.003Z,2.00
2018-06-10T04:07:04.729Z,1.83
2018-06-10T04:09:34.102Z,2.00
2018-06-10T04:12:03.849Z,1.90
2018-06-10T04:14:33.736Z,1.80
2018-06-10T04:17:03.471Z,2.00
2018-06-10T04:19:32.650Z,2.10
2018-06-10T04:22:03.004Z,2.00
2018-06-10T04:24:32.568Z,2.40
2018-06-10T04:27:02.272Z,2.00
2018-06-10T04:29:31.571Z,2.10
2018-06-10T04:32:02.140Z,2.10
2018-06-10T04:34:31.138Z,2.20
2018-06-10T04:37:00.780Z,2.47
2018-06-10T04:39:30.199Z,2.20
2018-06-10T04:41:59.472Z,1.80
2018-06-10T04:44:29.281Z,2.30
2018-06-10T04:46:58.303Z,2.00
2018-06-10T04:49:27.003Z,1.90
2018-06-10T04:51:56.955Z,1.70
2018-06-10T04:54:26.224Z,2.23
2018-06-10T04:56:55.408Z,2.30
2018-06-10T04:59:24.695Z,1.87
2018-06-10T05:01:54.312Z,1.90
2018-06-10T05:04:24.173Z,1.97
2018-06-10T05:06:53.849Z,2.10
2018-06-10T05:09:23.092Z,2.23
2018-06-10T05:11:52.491Z,1.93
2018-06-10T05:14:21.247Z,1.90
2018-06-10T05:16:51.525Z,2.00
2018-06-10T05:19:20.843Z,2.10
2018-06-10T05:21:50.463Z,2.20
2018-06-10T05:24:24.747Z,2.00
2018-06-10T05:26:53.883Z,2.00
2018-06-10T05:29:24.084Z,2.00
2018-06-10T05:31:53.380Z,2.47
2018-06-10T05:34:22.863Z,2.23
2018-06-10T05:36:51.626Z,2.10
2018-06-10T05:39:20.608Z,2.23
2018-06-10T05:41:49.936Z,2.17
2018-06-10T05:44:19.191Z,2.47
2018-06-10T05:46:48.128Z,2.20
2018-06-10T05:49:17.168Z,2.00
2018-06-10T05:51:46.739Z,1.97
2018-06-10T05:54:18.138Z,2.10
2018-06-10T05:56:46.960Z,2.30
2018-06-10T05:59:16.287Z,2.27
2018-06-10T06:01:46.074Z,2.10
2018-06-10T06:04:15.287Z,2.30
2018-06-10T06:06:44.385Z,2.03
2018-06-10T06:09:13.688Z,2.20
2018-06-10T06:11:43.199Z,2.37
2018-06-10T06:14:12.604Z,2.63
2018-06-10T06:16:41.864Z,2.27
2018-06-10T06:19:12.051Z,1.90
2018-06-10T06:21:41.138Z,2.10
2018-06-10T06:24:10.823Z,1.80
2018-06-10T06:26:39.740Z,2.30
2018-06-10T06:29:08.986Z,2.20
2018-06-10T06:31:37.984Z,2.23
2018-06-10T06:34:07.748Z,2.10
2018-06-10T06:36:40.623Z,2.20
2018-06-10T06:39:09.576Z,2.40
2018-06-10T06:41:38.431Z,2.20
2018-06-10T06:44:11.450Z,2.20
2018-06-10T06:46:40.380Z,1.97
2018-06-10T06:49:09.592Z,2.37
2018-06-10T06:51:39.028Z,2.40
2018-06-10T06:54:08.237Z,2.50
2018-06-10T06:56:38.119Z,2.63
2018-06-10T06:59:07.648Z,2.33
2018-06-10T07:01:36.780Z,2.57
2018-06-10T07:04:06.248Z,2.47
2018-06-10T07:06:35.476Z,2.10
2018-06-10T07:09:06.541Z,2.43
2018-06-10T07:11:36.548Z,2.50
2018-06-10T07:14:06.137Z,2.67
2018-06-10T07:16:35.203Z,2.47
2018-06-10T07:19:04.963Z,2.57
2018-06-10T07:21:33.876Z,2.50
2018-06-10T07:24:02.996Z,2.90
2018-06-10T07:26:32.836Z,2.70
2018-06-10T07:29:02.078Z,2.97
2018-06-10T07:31:31.361Z,2.53
2018-06-10T07:34:01.261Z,3.07
2018-06-10T07:36:30.624Z,3.03
2018-06-10T07:38:59.776Z,2.67
2018-06-10T07:41:29.084Z,3.43
2018-06-10T07:43:58.107Z,3.23
2018-06-10T07:46:26.856Z,2.60
2018-06-10T07:48:59.676Z,3.10
2018-06-10T07:51:29.355Z,3.27
2018-06-10T07:53:58.403Z,3.20
2018-06-10T07:56:27.703Z,3.40
2018-06-10T07:58:57.237Z,4.53
2018-06-10T08:01:26.276Z,3.20
2018-06-10T08:03:55.020Z,3.00
2018-06-10T08:06:27.988Z,3.17
2018-06-10T08:08:57.235Z,3.20
2018-06-10T08:11:26.343Z,2.97
2018-06-10T08:13:55.843Z,3.23
2018-06-10T08:16:25.002Z,3.00
2018-06-10T08:18:53.755Z,3.57
2018-06-10T08:21:23.161Z,3.60
2018-06-10T08:23:52.318Z,5.30
2018-06-10T08:26:22.113Z,4.03
2018-06-10T08:28:51.351Z,4.33
2018-06-10T08:31:20.624Z,4.20
2018-06-10T08:33:49.851Z,4.92
2018-06-10T08:36:19.099Z,5.05
2018-06-10T08:38:47.679Z,5.47
2018-06-10T08:41:16.849Z,5.22
2018-06-10T08:43:46.283Z,4.53
2018-06-10T08:46:15.125Z,4.25
2018-06-10T08:48:45.088Z,4.25
2018-06-10T08:51:14.080Z,4.33
2018-06-10T08:53:43.747Z,4.22
2018-06-10T08:56:12.609Z,4.37
2018-06-10T08:58:41.844Z,4.55
2018-06-10T09:01:11.025Z,4.45
2018-06-10T09:03:40.000Z,4.80
2018-06-10T09:06:08.695Z,4.50
2018-06-10T09:08:38.150Z,3.98
2018-06-10T09:11:07.158Z,4.05
2018-06-10T09:13:36.913Z,4.37
2018-06-10T09:16:06.332Z,3.98
2018-06-10T09:18:36.298Z,3.58
2018-06-10T09:21:05.705Z,3.33
2018-06-10T09:23:35.560Z,4.08
2018-06-10T09:26:04.804Z,3.20
2018-06-10T09:28:34.113Z,3.92
2018-06-10T09:31:03.759Z,3.65
2018-06-10T09:33:33.433Z,3.42
2018-06-10T09:36:03.630Z,3.20
2018-06-10T09:38:32.052Z,2.72
2018-06-10T09:41:01.453Z,2.80
2018-06-10T09:43:30.141Z,2.90
2018-06-10T09:45:59.420Z,2.98
2018-06-10T09:48:28.887Z,2.80
2018-06-10T09:50:57.859Z,2.85
2018-06-10T09:53:26.872Z,3.17
2018-06-10T09:55:56.155Z,2.72
2018-06-10T09:58:25.677Z,3.12
2018-06-10T10:00:54.480Z,2.90
2018-06-10T10:03:22.905Z,3.20
2018-06-10T10:05:51.939Z,2.92
2018-06-10T10:08:21.280Z,2.90
2018-06-10T10:10:50.832Z,3.00
2018-06-10T10:13:19.612Z,3.25
2018-06-10T10:15:48.939Z,2.80
2018-06-10T10:18:17.865Z,2.85
2018-06-10T10:20:46.884Z,3.40
2018-06-10T10:23:16.220Z,3.62
2018-06-10T10:25:45.275Z,3.20
2018-06-10T10:28:14.448Z,3.20
2018-06-10T10:30:44.146Z,2.80
2018-06-10T10:33:13.993Z,2.90
2018-06-10T10:35:42.992Z,3.30
2018-06-10T10:38:12.432Z,2.70
2018-06-10T10:40:41.507Z,3.17
2018-06-10T10:43:10.802Z,3.00
2018-06-10T10:45:40.627Z,2.98
2018-06-10T10:48:09.800Z,3.12
2018-06-10T10:50:38.904Z,3.12
2018-06-10T10:53:08.312Z,3.00
2018-06-10T10:55:37.520Z,2.87
2018-06-10T10:58:06.712Z,3.27
2018-06-10T11:00:35.887Z,3.40
2018-06-10T11:03:05.940Z,3.22
2018-06-10T11:05:35.322Z,3.25
2018-06-10T11:08:04.452Z,2.95
2018-06-10T11:10:33.257Z,3.58
2018-06-10T11:13:02.248Z,3.25
2018-06-10T11:15:31.268Z,3.17
2018-06-10T11:18:01.452Z,2.87
2018-06-10T11:20:30.384Z,3.12
2018-06-10T11:22:59.684Z,3.00
2018-06-10T11:25:28.370Z,3.10
2018-06-10T11:27:57.420Z,4.12
2018-06-10T11:30:26.383Z,3.25
2018-06-10T11:32:55.361Z,3.70
2018-06-10T11:35:24.621Z,3.65
2018-06-10T11:37:53.206Z,3.42
2018-06-10T11:40:21.854Z,3.37
2018-06-10T11:42:50.715Z,3.27
2018-06-10T11:45:19.629Z,3.58
2018-06-10T11:47:49.004Z,3.58
2018-06-10T11:50:17.972Z,3.30
2018-06-10T11:52:46.960Z,3.05
2018-06-10T11:55:16.776Z,3.50
2018-06-10T11:57:45.533Z,3.50
2018-06-10T12:00:14.920Z,3.10
2018-06-10T12:02:43.840Z,3.05
2018-06-10T12:05:13.157Z,3.20
2018-06-10T12:07:42.554Z,3.15
2018-06-10T12:10:11.528Z,3.15
2018-06-10T12:12:40.260Z,3.10
2018-06-10T12:15:09.148Z,3.17
2018-06-10T12:17:37.810Z,3.33
2018-06-10T12:20:07.311Z,3.30
2018-06-10T12:22:36.460Z,3.90
2018-06-10T12:25:05.516Z,3.02
2018-06-10T12:27:34.200Z,3.12
2018-06-10T12:30:02.830Z,3.47
2018-06-10T12:32:32.092Z,3.45
2018-06-10T12:35:01.468Z,3.58
2018-06-10T12:37:31.947Z,3.45
2018-06-10T12:40:01.004Z,3.20
2018-06-10T12:42:30.000Z,3.33
2018-06-10T12:44:59.310Z,3.42
2018-06-10T12:47:28.195Z,3.77
2018-06-10T12:49:56.893Z,4.37
2018-06-10T12:52:25.700Z,4.47
2018-06-10T12:54:54.751Z,4.40
2018-06-10T12:57:24.168Z,3.83
2018-06-10T12:59:53.419Z,4.50
2018-06-10T13:02:22.142Z,4.62
2018-06-10T13:04:51.500Z,4.67
2018-06-10T13:07:20.263Z,4.47
2018-06-10T13:09:49.511Z,3.90
2018-06-10T13:12:18.594Z,3.87
2018-06-10T13:14:48.120Z,4.08
2018-06-10T13:17:17.837Z,3.90
2018-06-10T13:19:46.739Z,3.60
2018-06-10T13:22:15.995Z,3.50
2018-06-10T13:24:44.693Z,3.58
2018-06-10T13:27:13.828Z,3.25
2018-06-10T13:29:43.103Z,3.60
2018-06-10T13:32:11.613Z,3.20
2018-06-10T13:34:40.402Z,3.37
2018-06-10T13:37:09.311Z,3.50
2018-06-10T13:39:38.428Z,3.65
2018-06-10T13:42:07.694Z,3.00
2018-06-10T13:44:36.296Z,3.25
2018-06-10T13:47:05.532Z,2.70
2018-06-10T13:49:34.459Z,3.10
2018-06-10T13:52:03.707Z,3.02
2018-06-10T13:54:33.452Z,2.70
2018-06-10T13:57:02.531Z,3.00
2018-06-10T13:59:31.635Z,3.08
2018-06-10T14:02:01.702Z,2.77
2018-06-10T14:04:31.112Z,3.27
2018-06-10T14:06:59.668Z,3.35
2018-06-10T14:09:29.028Z,3.50
2018-06-10T14:11:57.874Z,3.47
2018-06-10T14:14:26.966Z,3.72
2018-06-10T14:16:55.561Z,3.33
2018-06-10T14:19:24.688Z,3.05
2018-06-10T14:21:53.544Z,3.30
2018-06-10T14:24:22.639Z,2.92
2018-06-10T14:26:51.731Z,2.80
2018-06-10T14:29:20.916Z,3.08
2018-06-10T14:31:50.317Z,2.83
2018-06-10T14:34:18.980Z,2.77
2018-06-10T14:36:47.888Z,2.90
2018-06-10T14:39:16.177Z,2.52
2018-06-10T14:41:45.408Z,2.55
2018-06-10T14:44:14.790Z,2.95
2018-06-10T14:46:43.592Z,2.72
2018-06-10T14:49:12.384Z,2.90
2018-06-10T14:51:41.612Z,2.40
2018-06-10T14:54:10.193Z,2.62
2018-06-10T14:56:39.087Z,2.25
2018-06-10T14:59:07.499Z,2.30
2018-06-10T15:01:36.324Z,2.52
2018-06-10T15:04:05.016Z,2.25
2018-06-10T15:06:33.772Z,2.22
2018-06-10T15:09:02.798Z,1.90
2018-06-10T15:11:32.023Z,2.10
2018-06-10T15:14:00.827Z,2.20
2018-06-10T15:16:29.868Z,2.05
2018-06-10T15:18:59.226Z,2.02
2018-06-10T15:21:28.957Z,2.12
2018-06-10T15:23:58.352Z,2.10
2018-06-10T15:26:27.340Z,2.00
2018-06-10T15:28:56.317Z,2.40
2018-06-10T15:31:24.875Z,2.00
2018-06-10T15:33:54.236Z,2.17
2018-06-10T15:36:23.384Z,2.00
2018-06-10T15:38:55.708Z,1.70
2018-06-10T15:41:25.488Z,1.90
2018-06-10T15:43:54.873Z,1.82
2018-06-10T15:46:23.605Z,2.15
2018-06-10T15:48:52.872Z,1.72
2018-06-10T15:51:21.918Z,2.20
2018-06-10T15:53:51.200Z,1.70
2018-06-10T15:56:20.220Z,1.85
2018-06-10T15:58:48.913Z,1.67
2018-06-10T16:01:18.640Z,2.20
2018-06-10T16:03:47.644Z,1.60
2018-06-10T16:06:17.035Z,1.50
2018-06-10T16:08:45.356Z,1.87
2018-06-10T16:11:14.641Z,1.77
2018-06-10T16:13:43.304Z,1.90
2018-06-10T16:16:12.147Z,1.90
2018-06-10T16:18:40.939Z,2.20
2018-06-10T16:21:10.396Z,2.33
2018-06-10T16:23:38.697Z,2.27
2018-06-10T16:26:08.828Z,2.12
2018-06-10T16:28:37.924Z,1.72
2018-06-10T16:31:06.899Z,1.82
2018-06-10T16:33:35.917Z,2.10
2018-06-10T16:36:05.272Z,2.10
2018-06-10T16:38:34.572Z,1.90
2018-06-10T16:41:03.916Z,2.17
2018-06-10T16:43:32.859Z,2.20
2018-06-10T16:46:01.930Z,2.47
2018-06-10T16:48:30.864Z,2.20
2018-06-10T16:51:01.329Z,1.92
2018-06-10T16:53:30.337Z,2.00
2018-06-10T16:55:59.701Z,2.10
2018-06-10T16:58:29.047Z,1.90
2018-06-10T17:00:59.700Z,1.90
2018-06-10T17:03:29.148Z,1.80
2018-06-10T17:05:58.287Z,1.90
2018-06-10T17:08:27.564Z,1.60
2018-06-10T17:10:56.212Z,1.98
2018-06-10T17:13:26.828Z,2.10
2018-06-10T17:15:56.993Z,2.10
2018-06-10T17:18:25.319Z,2.62
2018-06-10T17:20:54.339Z,4.33
2018-06-10T17:23:23.824Z,2.75
2018-06-10T17:25:53.050Z,2.72
2018-06-10T17:28:21.787Z,2.47
2018-06-10T17:30:51.741Z,4.97
2018-06-10T17:33:24.269Z,5.28
2018-06-10T17:35:53.704Z,4.42
2018-06-10T17:38:22.771Z,3.12
2018-06-10T17:40:51.908Z,4.05
2018-06-10T17:43:21.124Z,2.70
2018-06-10T17:45:50.436Z,1.90
2018-06-10T17:48:19.483Z,2.47
2018-06-10T17:50:48.242Z,1.90
2018-06-10T17:53:17.164Z,1.62
2018-06-10T17:55:46.218Z,1.52
2018-06-10T17:58:15.211Z,1.60
2018-06-10T18:00:44.373Z,1.70
2018-06-10T18:03:13.255Z,1.50
2018-06-10T18:05:42.619Z,1.40
2018-06-10T18:08:11.712Z,1.75
2018-06-10T18:10:41.228Z,1.20
2018-06-10T18:13:10.261Z,1.40
2018-06-10T18:15:39.235Z,1.40
2018-06-10T18:18:09.063Z,1.40
2018-06-10T18:20:37.979Z,1.40
2018-06-10T18:23:11.611Z,1.30
2018-06-10T18:25:44.807Z,1.50
2018-06-10T18:28:23.135Z,1.32
2018-06-10T18:30:59.688Z,1.32
2018-06-10T18:36:08.124Z,1.60
2018-06-10T18:38:37.445Z,1.42
2018-06-10T18:44:00.911Z,1.60
2018-06-10T18:46:30.020Z,1.77
2018-06-10T18:48:59.372Z,1.40
2018-06-10T18:51:43.367Z,1.50
2018-06-10T18:57:36.977Z,1.30
2018-06-10T19:00:09.962Z,1.72
2018-06-10T19:06:26.177Z,1.75
2018-06-10T19:14:54.468Z,1.70
2018-06-10T19:17:23.622Z,1.55
2018-06-10T19:19:52.986Z,1.55
2018-06-10T19:22:22.336Z,2.00
2018-06-10T19:24:52.590Z,1.67
2018-06-10T19:27:21.540Z,1.85
2018-06-10T19:29:50.408Z,1.57
2018-06-10T19:32:19.348Z,1.97
2018-06-10T19:34:48.435Z,1.73
2018-06-10T19:37:17.420Z,1.73
2018-06-10T19:39:47.684Z,2.33
2018-06-10T19:42:20.934Z,1.80
2018-06-10T19:44:50.692Z,2.00
2018-06-10T19:47:20.988Z,1.73
2018-06-10T19:49:49.868Z,2.33
2018-06-10T19:52:19.777Z,1.87
2018-06-10T19:54:49.291Z,2.07
2018-06-10T19:57:19.398Z,2.10
2018-06-10T19:59:48.415Z,1.87
2018-06-10T20:02:17.591Z,2.20
2018-06-10T20:04:46.920Z,2.17
2018-06-10T20:07:16.802Z,2.17
2018-06-10T20:09:51.148Z,2.23
2018-06-10T20:15:07.201Z,2.43
2018-06-10T20:20:41.302Z,2.10
2018-06-10T20:23:21.013Z,2.10
2018-06-10T20:25:49.920Z,2.00
2018-06-10T20:28:19.292Z,2.20
2018-06-10T20:33:56.429Z,2.00
2018-06-10T20:40:40.215Z,2.40
2018-06-10T20:43:09.584Z,2.57
2018-06-10T20:45:38.534Z,2.60
2018-06-10T20:48:07.960Z,2.40
2018-06-10T20:50:37.003Z,2.50
2018-06-10T20:53:05.655Z,2.40
2018-06-10T20:55:34.630Z,2.40
2018-06-10T20:58:03.863Z,2.37
2018-06-10T21:00:32.927Z,2.40
2018-06-10T21:03:02.418Z,2.47
2018-06-10T21:05:31.740Z,2.10
2018-06-10T21:08:01.425Z,2.60
2018-06-10T21:10:30.746Z,2.50
2018-06-10T21:12:59.639Z,2.50
2018-06-10T21:15:28.604Z,2.33
2018-06-10T21:17:58.071Z,2.27
2018-06-10T21:20:27.543Z,2.20
2018-06-10T21:22:57.192Z,2.33
2018-06-10T21:25:26.812Z,2.50
2018-06-10T21:27:55.951Z,2.40
2018-06-10T21:30:25.192Z,2.97
2018-06-10T21:32:54.502Z,2.80
2018-06-10T21:35:23.503Z,2.60
2018-06-10T21:37:56.648Z,3.40
2018-06-10T21:40:25.876Z,2.33
2018-06-10T21:42:55.888Z,2.20
2018-06-10T21:45:25.300Z,2.40
2018-06-10T21:47:54.633Z,2.63
2018-06-10T21:50:23.580Z,2.27
2018-06-10T21:52:52.744Z,2.40
2018-06-10T21:55:22.030Z,2.57
2018-06-10T21:57:51.008Z,2.60
2018-06-10T22:00:45.138Z,2.83
2018-06-10T22:03:14.744Z,2.70
2018-06-10T22:06:03.393Z,2.57
2018-06-10T22:08:31.811Z,2.57
2018-06-10T22:11:00.892Z,2.57
2018-06-10T22:16:30.137Z,3.00
2018-06-10T22:18:59.940Z,2.70
2018-06-10T22:29:08.553Z,2.50
2018-06-10T22:31:38.061Z,2.50
2018-06-10T22:37:10.712Z,2.57
2018-06-10T22:39:39.638Z,2.70
2018-06-10T22:42:08.612Z,2.53
2018-06-10T22:44:47.384Z,2.53
2018-06-10T22:47:23.616Z,3.03
2018-06-10T22:49:52.316Z,2.20
2018-06-10T22:52:22.187Z,2.60
2018-06-10T22:54:51.498Z,2.27
2018-06-10T23:03:20.297Z,2.50
2018-06-10T23:05:49.235Z,2.47
2018-06-10T23:08:19.508Z,2.53
2018-06-10T23:13:38.452Z,2.27
2018-06-10T23:19:12.224Z,2.50
2018-06-10T23:21:40.969Z,2.70
2018-06-10T23:24:09.912Z,2.47
2018-06-10T23:26:38.841Z,2.17
2018-06-10T23:29:07.946Z,2.70
2018-06-10T23:31:37.475Z,2.37
2018-06-10T23:34:06.656Z,2.43
2018-06-10T23:36:36.465Z,2.50
2018-06-10T23:39:06.836Z,2.40
2018-06-10T23:41:35.909Z,2.57
2018-06-10T23:44:04.581Z,2.70
2018-06-10T23:46:33.716Z,2.47
2018-06-10T23:49:03.316Z,2.63
2018-06-10T23:51:32.690Z,2.97
2018-06-10T23:54:01.680Z,2.63
2018-06-10T23:56:30.948Z,2.30
2018-06-10T23:59:00.568Z,2.60
